Time,TemperatureF,DewpointF,PressureIn,WindDirection,WindDirectionDegrees,WindSpeedMPH,WindSpeedGustMPH,Humidity,HourlyPrecipIn,Conditions,Clouds,dailyrainin,SoftwareType,DateUTC
2017-09-22 00:10:00,65.8,63.0,30.01,East,86,3.0,6.0,89,0.00,,,0.00,weatherlink.com 1.10,2017-09-22 04:10:00,
2017-09-22 00:25:00,67.1,63.0,30.01,ENE,63,4.0,6.0,87,0.00,,,0.00,weatherlink.com 1.10,2017-09-22 04:25:00,
2017-09-22 00:55:00,66.9,63.0,30.01,NE,55,3.0,8.0,86,0.00,,,0.00,weatherlink.com 1.10,2017-09-22 04:55:00,
2017-09-22 01:10:00,66.6,63.0,30.01,NNE,25,2.0,5.0,87,0.00,,,0.00,weatherlink.com 1.10,2017-09-22 05:10:00,
2017-09-22 01:25:00,66.3,62.0,30.02,NNE,17,3.0,4.0,87,0.00,,,0.00,weatherlink.com 1.10,2017-09-22 05:25:00,
2017-09-22 01:40:00,66.3,62.0,30.02,NE,44,1.0,4.0,86,0.00,,,0.00,weatherlink.com 1.10,2017-09-22 05:40:00,
2017-09-22 01:56:00,65.6,62.0,30.02,NNE,33,0.0,3.0,87,0.00,,,0.00,weatherlink.com 1.10,2017-09-22 05:56:00,
2017-09-22 02:11:00,64.7,62.0,30.01,NNE,32,1.0,2.0,89,0.00,,,0.00,weatherlink.com 1.10,2017-09-22 06:11:00,
2017-09-22 02:26:00,63.8,61.0,30.01,NNE,32,0.0,1.0,90,0.00,,,0.00,weatherlink.com 1.10,2017-09-22 06:26:00,
2017-09-22 02:41:00,63.3,61.0,30.01,NNE,32,0.0,1.0,92,0.00,,,0.00,weatherlink.com 1.10,2017-09-22 06:41:00,
2017-09-22 02:56:00,63.0,61.0,30.00,NNE,32,0.0,2.0,93,0.00,,,0.00,weatherlink.com 1.10,2017-09-22 06:56:00,
2017-09-22 03:11:00,62.7,61.0,30.00,NNE,31,1.0,2.0,93,0.00,,,0.00,weatherlink.com 1.10,2017-09-22 07:11:00,
2017-09-22 03:26:00,62.6,61.0,30.01,NNE,31,1.0,3.0,94,0.00,,,0.00,weatherlink.com 1.10,2017-09-22 07:26:00,
2017-09-22 03:41:00,62.7,61.0,30.01,NNW,332,0.0,4.0,93,0.00,,,0.00,weatherlink.com 1.10,2017-09-22 07:41:00,
2017-09-22 03:56:00,62.8,61.0,30.01,NNW,332,1.0,2.0,94,0.00,,,0.00,weatherlink.com 1.10,2017-09-22 07:56:00,
2017-09-22 04:11:00,62.6,61.0,30.00,NNW,332,2.0,3.0,94,0.00,,,0.00,weatherlink.com 1.10,2017-09-22 08:11:00,
2017-09-22 04:26:00,62.2,60.0,30.00,NNW,332,0.0,2.0,93,0.00,,,0.00,weatherlink.com 1.10,2017-09-22 08:26:00,
2017-09-22 04:41:00,61.5,60.0,30.01,East,93,1.0,3.0,94,0.00,,,0.00,weatherlink.com 1.10,2017-09-22 08:41:00,
2017-09-22 04:57:00,61.6,60.0,30.01,ENE,78,1.0,2.0,94,0.00,,,0.00,weatherlink.com 1.10,2017-09-22 08:57:00,
2017-09-22 05:11:00,61.4,60.0,30.01,ENE,63,0.0,1.0,95,0.00,,,0.00,weatherlink.com 1.10,2017-09-22 09:11:00,
2017-09-22 05:26:00,61.8,61.0,30.01,ENE,63,0.0,2.0,96,0.00,,,0.00,weatherlink.com 1.10,2017-09-22 09:26:00,
2017-09-22 05:41:00,61.4,60.0,30.01,ENE,63,1.0,2.0,94,0.00,,,0.00,weatherlink.com 1.10,2017-09-22 09:41:00,
2017-09-22 05:56:00,60.6,59.0,30.01,ENE,63,0.0,1.0,94,0.00,,,0.00,weatherlink.com 1.10,2017-09-22 09:56:00,
2017-09-22 06:11:00,60.4,59.0,30.02,ENE,63,0.0,1.0,95,0.00,,,0.00,weatherlink.com 1.10,2017-09-22 10:11:00,
2017-09-22 06:26:00,60.4,59.0,30.02,ENE,63,1.0,2.0,96,0.00,,,0.00,weatherlink.com 1.10,2017-09-22 10:26:00,
2017-09-22 06:41:00,60.4,59.0,30.02,ENE,63,1.0,1.0,96,0.00,,,0.00,weatherlink.com 1.10,2017-09-22 10:41:00,
2017-09-22 06:56:00,60.6,60.0,30.03,ENE,63,1.0,1.0,97,0.00,,,0.00,weatherlink.com 1.10,2017-09-22 10:56:00,
2017-09-22 07:26:00,60.4,59.0,30.03,ENE,63,0.0,1.0,96,0.00,,,0.00,weatherlink.com 1.10,2017-09-22 11:26:00,
2017-09-22 07:41:00,60.7,60.0,30.03,ENE,63,0.0,1.0,97,0.00,,,0.00,weatherlink.com 1.10,2017-09-22 11:41:00,
2017-09-22 07:56:00,61.0,60.0,30.04,ENE,63,0.0,1.0,97,0.00,,,0.00,weatherlink.com 1.10,2017-09-22 11:56:00,
2017-09-22 08:11:00,60.0,59.0,30.03,East,91,0.0,3.0,96,0.00,,,0.00,weatherlink.com 1.10,2017-09-22 12:11:00,
2017-09-22 08:26:00,60.5,60.0,30.04,East,91,1.0,1.0,97,0.00,,,0.00,weatherlink.com 1.10,2017-09-22 12:26:00,
2017-09-22 08:41:00,62.1,61.0,30.04,East,95,1.0,4.0,97,0.00,,,0.00,weatherlink.com 1.10,2017-09-22 12:41:00,
2017-09-22 09:11:00,64.9,64.0,30.04,East,95,1.0,1.0,96,0.00,,,0.00,weatherlink.com 1.10,2017-09-22 13:11:00,
2017-09-22 09:26:00,67.4,66.0,30.04,East,95,0.0,1.0,95,0.00,,,0.00,weatherlink.com 1.10,2017-09-22 13:26:00,
2017-09-22 09:41:00,70.3,66.0,30.04,NNE,29,2.0,2.0,86,0.00,,,0.00,weatherlink.com 1.10,2017-09-22 13:41:00,
2017-09-22 09:56:00,72.4,67.0,30.04,NNE,23,1.0,3.0,83,0.00,,,0.00,weatherlink.com 1.10,2017-09-22 13:56:00,
2017-09-22 10:11:00,74.0,67.0,30.04,West,279,2.0,5.0,79,0.00,,,0.00,weatherlink.com 1.10,2017-09-22 14:11:00,
2017-09-22 10:27:00,75.1,67.0,30.04,West,259,0.0,3.0,77,0.00,,,0.00,weatherlink.com 1.10,2017-09-22 14:27:00,
2017-09-22 10:42:00,76.0,67.0,30.04,ENE,66,0.0,3.0,74,0.00,,,0.00,weatherlink.com 1.10,2017-09-22 14:42:00,
2017-09-22 10:57:00,75.9,67.0,30.03,NNW,335,2.0,5.0,73,0.00,,,0.00,weatherlink.com 1.10,2017-09-22 14:57:00,
2017-09-22 11:12:00,76.2,67.0,30.03,NW,305,1.0,4.0,74,0.00,,,0.00,weatherlink.com 1.10,2017-09-22 15:12:00,
2017-09-22 11:27:00,76.0,66.0,30.03,West,270,2.0,4.0,70,0.00,,,0.00,weatherlink.com 1.10,2017-09-22 15:27:00,
2017-09-22 11:42:00,76.9,66.0,30.03,WNW,292,3.0,8.0,69,0.00,,,0.00,weatherlink.com 1.10,2017-09-22 15:42:00,
2017-09-22 11:57:00,77.8,66.0,30.02,NNE,19,1.0,6.0,67,0.00,,,0.00,weatherlink.com 1.10,2017-09-22 15:57:00,
2017-09-22 12:12:00,78.0,65.0,30.02,NNW,331,8.0,11.0,64,0.00,,,0.00,weatherlink.com 1.10,2017-09-22 16:12:00,
2017-09-22 12:27:00,79.0,65.0,30.02,WNW,302,5.0,11.0,63,0.00,,,0.00,weatherlink.com 1.10,2017-09-22 16:27:00,
2017-09-22 12:42:00,79.5,66.0,30.01,WNW,291,8.0,13.0,63,0.00,,,0.00,weatherlink.com 1.10,2017-09-22 16:42:00,
2017-09-22 12:57:00,80.5,66.0,30.01,WNW,287,7.0,11.0,61,0.00,,,0.00,weatherlink.com 1.10,2017-09-22 16:57:00,
2017-09-22 13:12:00,80.7,64.0,30.00,NNW,339,2.0,8.0,58,0.00,,,0.00,weatherlink.com 1.10,2017-09-22 17:12:00,
2017-09-22 13:27:00,81.6,65.0,30.00,NW,323,9.0,14.0,58,0.00,,,0.00,weatherlink.com 1.10,2017-09-22 17:27:00,
2017-09-22 13:42:00,81.5,64.0,29.99,NNW,329,4.0,11.0,55,0.00,,,0.00,weatherlink.com 1.10,2017-09-22 17:42:00,
2017-09-22 13:57:00,82.0,63.0,29.99,WNW,283,3.0,12.0,53,0.00,,,0.00,weatherlink.com 1.10,2017-09-22 17:57:00,
2017-09-22 14:12:00,82.3,63.0,29.98,NW,321,6.0,8.0,53,0.00,,,0.00,weatherlink.com 1.10,2017-09-22 18:12:00,
2017-09-22 14:28:00,83.0,62.0,29.98,NNW,342,5.0,12.0,50,0.00,,,0.00,weatherlink.com 1.10,2017-09-22 18:28:00,
2017-09-22 14:42:00,83.6,63.0,29.98,West,267,8.0,16.0,50,0.00,,,0.00,weatherlink.com 1.10,2017-09-22 18:42:00,
2017-09-22 14:57:00,84.3,61.0,29.97,NNW,344,14.0,18.0,46,0.00,,,0.00,weatherlink.com 1.10,2017-09-22 18:57:00,
2017-09-22 15:12:00,84.0,60.0,29.97,NNW,347,6.0,15.0,45,0.00,,,0.00,weatherlink.com 1.10,2017-09-22 19:12:00,
2017-09-22 15:28:00,84.1,61.0,29.97,North,360,12.0,16.0,46,0.00,,,0.00,weatherlink.com 1.10,2017-09-22 19:28:00,
2017-09-22 15:58:00,84.2,60.0,29.96,North,355,5.0,10.0,44,0.00,,,0.00,weatherlink.com 1.10,2017-09-22 19:58:00,
2017-09-22 16:12:00,84.4,61.0,29.96,NNW,340,8.0,11.0,46,0.00,,,0.00,weatherlink.com 1.10,2017-09-22 20:12:00,
2017-09-22 16:27:00,84.4,60.0,29.95,NW,317,5.0,15.0,44,0.00,,,0.00,weatherlink.com 1.10,2017-09-22 20:27:00,
2017-09-22 16:42:00,84.4,61.0,29.95,NW,312,3.0,13.0,46,0.00,,,0.00,weatherlink.com 1.10,2017-09-22 20:42:00,
2017-09-22 16:58:00,84.3,59.0,29.95,WNW,290,7.0,15.0,43,0.00,,,0.00,weatherlink.com 1.10,2017-09-22 20:58:00,
2017-09-22 17:12:00,83.7,60.0,29.95,North,5,8.0,12.0,44,0.00,,,0.00,weatherlink.com 1.10,2017-09-22 21:12:00,
2017-09-22 17:27:00,82.3,61.0,29.95,NW,325,5.0,14.0,48,0.00,,,0.00,weatherlink.com 1.10,2017-09-22 21:27:00,
2017-09-22 17:42:00,81.6,62.0,29.95,NNW,348,6.0,10.0,51,0.00,,,0.00,weatherlink.com 1.10,2017-09-22 21:42:00,
2017-09-22 17:58:00,81.1,62.0,29.95,NW,319,4.0,10.0,53,0.00,,,0.00,weatherlink.com 1.10,2017-09-22 21:58:00,
2017-09-22 18:13:00,80.4,63.0,29.95,NNW,339,1.0,8.0,55,0.00,,,0.00,weatherlink.com 1.10,2017-09-22 22:13:00,
2017-09-22 18:28:00,79.6,63.0,29.95,NNW,340,2.0,8.0,58,0.00,,,0.00,weatherlink.com 1.10,2017-09-22 22:28:00,
2017-09-22 18:43:00,78.1,63.0,29.95,NNW,330,2.0,5.0,61,0.00,,,0.00,weatherlink.com 1.10,2017-09-22 22:43:00,
2017-09-22 18:58:00,75.7,64.0,29.95,NNW,330,0.0,2.0,66,0.00,,,0.00,weatherlink.com 1.10,2017-09-22 22:58:00,
2017-09-22 19:13:00,73.2,63.0,29.95,NNW,330,0.0,1.0,70,0.00,,,0.00,weatherlink.com 1.10,2017-09-22 23:13:00,
2017-09-22 19:28:00,71.8,63.0,29.95,NNW,330,0.0,2.0,73,0.00,,,0.00,weatherlink.com 1.10,2017-09-22 23:28:00,
2017-09-22 19:43:00,70.4,62.0,29.95,NNW,330,0.0,2.0,75,0.00,,,0.00,weatherlink.com 1.10,2017-09-22 23:43:00,
2017-09-22 19:58:00,69.8,62.0,29.96,ENE,74,2.0,3.0,76,0.00,,,0.00,weatherlink.com 1.10,2017-09-22 23:58:00,
2017-09-22 20:13:00,71.5,63.0,29.96,ENE,63,1.0,4.0,74,0.00,,,0.00,weatherlink.com 1.10,2017-09-23 00:13:00,
2017-09-22 20:28:00,70.4,63.0,29.97,East,85,2.0,4.0,76,0.00,,,0.00,weatherlink.com 1.10,2017-09-23 00:28:00,
2017-09-22 20:43:00,70.7,62.0,29.97,East,92,2.0,4.0,73,0.00,,,0.00,weatherlink.com 1.10,2017-09-23 00:43:00,
2017-09-22 20:58:00,69.6,61.0,29.97,NNE,32,1.0,3.0,74,0.00,,,0.00,weatherlink.com 1.10,2017-09-23 00:58:00,
2017-09-22 21:13:00,67.9,60.0,29.97,NNE,31,1.0,2.0,77,0.00,,,0.00,weatherlink.com 1.10,2017-09-23 01:13:00,
2017-09-22 21:28:00,66.8,60.0,29.97,ENE,68,2.0,4.0,78,0.00,,,0.00,weatherlink.com 1.10,2017-09-23 01:28:00,
2017-09-22 21:43:00,65.6,60.0,29.97,ENE,67,2.0,4.0,83,0.00,,,0.00,weatherlink.com 1.10,2017-09-23 01:43:00,
2017-09-22 21:58:00,67.0,60.0,29.98,East,83,2.0,4.0,79,0.00,,,0.00,weatherlink.com 1.10,2017-09-23 01:58:00,
2017-09-22 22:13:00,68.1,60.0,29.98,NE,44,2.0,6.0,76,0.00,,,0.00,weatherlink.com 1.10,2017-09-23 02:13:00,
2017-09-22 22:28:00,68.3,59.0,29.99,ENE,58,2.0,6.0,73,0.00,,,0.00,weatherlink.com 1.10,2017-09-23 02:28:00,